createdAt,value
2022-11-03T00:01:18.099Z,8.73
2022-11-03T00:06:19.766Z,8.25
2022-11-03T00:11:21.380Z,7.50
2022-11-03T00:16:23.077Z,7.13
2022-11-03T00:21:25.206Z,7.78
2022-11-03T00:26:28.738Z,14.55
2022-11-03T00:31:33.488Z,7.72
2022-11-03T00:36:36.785Z,8.38
2022-11-03T00:41:39.405Z,7.82
2022-11-03T00:46:41.117Z,6.32
2022-11-03T00:51:42.741Z,11.30
2022-11-03T00:56:44.817Z,8.70
2022-11-03T01:01:47.915Z,9.52
2022-11-03T01:06:51.516Z,8.30
2022-11-03T01:12:05.925Z,5.68
2022-11-03T01:17:16.288Z,7.32
2022-11-03T01:22:19.187Z,8.75
2022-11-03T01:27:23.034Z,7.63
2022-11-03T01:32:24.681Z,8.65
2022-11-03T01:37:26.714Z,5.63
2022-11-03T01:42:28.362Z,9.93
2022-11-03T01:47:33.152Z,9.00
2022-11-03T01:52:40.348Z,8.05
2022-11-03T01:58:00.960Z,7.05
2022-11-03T02:03:03.112Z,8.43
2022-11-03T02:08:25.892Z,8.13
2022-11-03T02:13:28.021Z,6.80
2022-11-03T02:18:33.878Z,7.47
2022-11-03T02:24:08.861Z,7.53
2022-11-03T02:29:10.553Z,6.15
2022-11-03T02:34:49.222Z,8.00
2022-11-03T02:40:00.008Z,6.22
2022-11-03T02:45:05.351Z,6.00
2022-11-03T02:50:10.397Z,7.90
2022-11-03T02:55:14.797Z,10.55
2022-11-03T03:00:17.705Z,9.38
2022-11-03T03:05:24.652Z,9.52
2022-11-03T03:10:31.491Z,7.53
2022-11-03T03:15:54.174Z,7.82
2022-11-03T03:21:01.508Z,7.13
2022-11-03T03:26:13.535Z,7.80
2022-11-03T03:31:18.822Z,5.25
2022-11-03T03:36:24.236Z,8.98
2022-11-03T03:41:29.129Z,5.68
2022-11-03T03:46:34.794Z,4.43
2022-11-03T03:51:37.546Z,8.57
2022-11-03T03:56:48.131Z,6.93
2022-11-03T04:01:49.801Z,5.15
2022-11-03T04:07:11.501Z,6.72
2022-11-03T04:12:32.275Z,5.80
2022-11-03T04:17:52.639Z,4.90
2022-11-03T04:22:54.254Z,8.50
2022-11-03T04:27:55.912Z,6.22
2022-11-03T04:32:57.749Z,5.97
2022-11-03T04:38:09.825Z,8.05
2022-11-03T04:43:14.937Z,5.68
2022-11-03T04:48:21.325Z,6.00
2022-11-03T04:53:23.567Z,6.40
2022-11-03T04:58:34.485Z,5.68
2022-11-03T05:03:37.474Z,10.43
2022-11-03T05:08:39.406Z,8.50
2022-11-03T05:13:41.108Z,4.65
2022-11-03T05:18:46.266Z,6.22
2022-11-03T05:23:54.603Z,8.65
2022-11-03T05:29:00.588Z,20.10
2022-11-03T05:34:13.832Z,10.55
2022-11-03T05:39:35.117Z,12.07
2022-11-03T05:44:39.629Z,7.85
2022-11-03T05:49:41.317Z,7.13
2022-11-03T05:54:42.990Z,9.95
2022-11-03T05:59:47.257Z,8.00
2022-11-03T06:04:49.291Z,6.90
2022-11-03T06:09:53.171Z,12.35
2022-11-03T06:14:54.888Z,7.65
2022-11-03T06:19:58.512Z,6.88
2022-11-03T06:25:12.687Z,14.10
2022-11-03T06:30:33.874Z,7.15
2022-11-03T06:35:35.991Z,7.28
2022-11-03T06:40:38.860Z,7.50
2022-11-03T06:45:52.101Z,10.23
2022-11-03T06:50:54.779Z,8.20
2022-11-03T06:55:56.867Z,8.48
2022-11-03T07:01:09.517Z,7.28
2022-11-03T07:06:11.205Z,7.50
2022-11-03T07:11:19.226Z,6.38
2022-11-03T07:16:31.878Z,5.43
2022-11-03T07:21:41.042Z,6.35
2022-11-03T07:26:42.681Z,6.93
2022-11-03T07:31:44.394Z,10.68
2022-11-03T07:36:49.992Z,8.07
2022-11-03T07:41:54.408Z,7.50
2022-11-03T07:46:57.189Z,8.82
2022-11-03T07:52:00.318Z,7.43
2022-11-03T07:57:12.602Z,9.00
2022-11-03T08:02:42.547Z,4.50
2022-11-03T08:07:44.243Z,6.55
2022-11-03T08:12:46.143Z,4.57
2022-11-03T08:17:50.903Z,7.00
2022-11-03T08:23:24.178Z,4.95
2022-11-03T08:28:16.803Z,7.57
2022-11-03T08:33:18.601Z,6.90
2022-11-03T08:38:20.427Z,8.02
2022-11-03T08:43:22.554Z,10.43
2022-11-03T08:48:29.107Z,10.13
2022-11-03T08:53:30.850Z,4.45
2022-11-03T08:58:32.745Z,6.28
2022-11-03T09:03:34.394Z,4.70
2022-11-03T09:13:58.030Z,8.25
2022-11-03T09:18:59.747Z,3.45
2022-11-03T09:24:01.398Z,4.95
2022-11-03T09:29:03.127Z,7.18
2022-11-03T09:34:04.761Z,5.47
2022-11-03T09:39:06.413Z,9.98
2022-11-03T09:44:08.242Z,7.38
2022-11-03T09:49:16.964Z,12.90
2022-11-03T09:54:18.709Z,10.15
2022-11-03T09:59:22.687Z,26.95
2022-11-03T10:04:29.257Z,5.28
2022-11-03T10:09:30.970Z,5.85
2022-11-03T10:14:32.637Z,5.95
2022-11-03T10:19:34.267Z,6.85
2022-11-03T10:24:35.953Z,4.88
2022-11-03T10:29:39.902Z,7.22
2022-11-03T10:34:42.955Z,5.70
2022-11-03T10:39:45.921Z,4.20
2022-11-03T10:44:50.723Z,4.95
2022-11-03T10:49:55.166Z,4.10
2022-11-03T10:54:59.297Z,6.50
2022-11-03T11:00:01.600Z,5.50
2022-11-03T11:05:13.565Z,6.50
2022-11-03T11:10:27.150Z,4.75
2022-11-03T11:15:41.157Z,7.60
2022-11-03T11:20:42.997Z,6.55
2022-11-03T11:26:06.253Z,4.75
2022-11-03T11:32:04.563Z,3.85
2022-11-03T11:37:06.172Z,4.47
2022-11-03T11:42:13.774Z,3.78
2022-11-03T11:47:39.986Z,4.63
2022-11-03T11:52:42.887Z,3.13
2022-11-03T11:57:45.485Z,6.68
2022-11-03T12:02:48.115Z,4.55
2022-11-03T12:07:50.008Z,4.72
2022-11-03T12:12:52.137Z,4.78
2022-11-03T12:17:53.784Z,3.35
2022-11-03T12:22:55.405Z,5.25
2022-11-03T12:27:57.060Z,4.70
2022-11-03T12:32:58.786Z,4.72
2022-11-03T12:38:00.417Z,4.63
2022-11-03T12:43:02.101Z,2.05
2022-11-03T12:48:04.831Z,8.52
2022-11-03T12:53:07.072Z,4.35
2022-11-03T12:58:10.212Z,4.25
2022-11-03T13:03:11.922Z,4.57
2022-11-03T13:08:13.670Z,3.92
2022-11-03T13:13:15.511Z,5.13
2022-11-03T13:18:17.151Z,4.82
2022-11-03T13:23:22.039Z,2.25
2022-11-03T13:28:24.832Z,5.05
2022-11-03T13:33:26.465Z,4.53
2022-11-03T13:38:28.148Z,3.92
2022-11-03T13:43:29.920Z,6.18
2022-11-03T13:59:30.822Z,5.25
2022-11-03T14:09:42.108Z,4.18
2022-11-03T14:14:43.953Z,3.88
2022-11-03T14:19:51.739Z,5.60
2022-11-03T14:24:54.349Z,6.00
2022-11-03T14:29:56.185Z,4.68
2022-11-03T14:34:57.997Z,4.00
2022-11-03T14:39:59.872Z,7.35
2022-11-03T14:45:01.667Z,8.27
2022-11-03T14:50:03.580Z,6.53
2022-11-03T14:55:05.900Z,6.60
2022-11-03T15:00:10.268Z,7.45
2022-11-03T15:05:31.881Z,5.35
2022-11-03T15:10:33.550Z,5.18
2022-11-03T15:15:35.669Z,6.10
2022-11-03T15:20:37.681Z,3.65
2022-11-03T15:25:39.511Z,5.97
2022-11-03T15:30:41.390Z,7.15
2022-11-03T15:35:43.103Z,5.50
2022-11-03T15:40:44.966Z,6.20
2022-11-03T15:45:46.646Z,6.32
2022-11-03T15:50:48.259Z,4.00
2022-11-03T15:55:49.909Z,3.20
2022-11-03T16:00:51.759Z,5.20
2022-11-03T16:05:53.458Z,4.00
2022-11-03T16:10:58.186Z,4.70
2022-11-03T16:16:00.128Z,4.97
2022-11-03T16:21:01.793Z,6.53
2022-11-03T16:26:05.180Z,4.78
2022-11-03T16:31:06.898Z,4.80
2022-11-03T16:36:08.599Z,5.55
2022-11-03T16:41:10.377Z,6.50
2022-11-03T16:46:11.989Z,6.95
2022-11-03T16:51:13.913Z,9.80
2022-11-03T16:56:15.530Z,8.57
2022-11-03T17:01:17.358Z,6.05
2022-11-03T17:06:19.093Z,5.03
2022-11-03T17:11:35.776Z,8.90
2022-11-03T17:16:37.771Z,11.93
2022-11-03T17:21:40.496Z,6.95
2022-11-03T17:27:11.718Z,7.30
2022-11-03T17:32:24.134Z,10.20
2022-11-03T17:37:26.729Z,9.38
2022-11-03T17:42:28.858Z,10.85
2022-11-03T17:47:31.683Z,10.00
2022-11-03T17:52:33.990Z,11.18
2022-11-03T17:57:36.353Z,9.85
2022-11-03T18:02:40.135Z,8.48
2022-11-03T18:07:42.793Z,11.43
2022-11-03T18:13:15.714Z,10.50
2022-11-03T18:18:39.494Z,10.23
2022-11-03T18:23:41.119Z,11.43
2022-11-03T18:28:42.760Z,11.13
2022-11-03T18:33:44.641Z,12.80
2022-11-03T18:38:48.290Z,12.40
2022-11-03T18:43:49.937Z,10.38
2022-11-03T18:48:51.710Z,12.10
2022-11-03T18:53:53.807Z,12.48
2022-11-03T18:58:57.214Z,13.57
2022-11-03T19:03:58.857Z,12.10
2022-11-03T19:09:01.784Z,15.07
2022-11-03T19:14:03.435Z,11.02
2022-11-03T19:19:05.069Z,11.38
2022-11-03T19:24:07.019Z,12.75
2022-11-03T19:29:15.944Z,12.27
2022-11-03T19:34:29.654Z,12.80
2022-11-03T19:39:32.787Z,13.63
2022-11-03T19:49:37.033Z,13.30
2022-11-03T19:54:39.835Z,15.32
2022-11-03T19:59:43.007Z,13.50
2022-11-03T20:04:47.205Z,13.20
2022-11-03T20:09:48.943Z,14.32
2022-11-03T20:14:50.559Z,13.95
2022-11-03T20:19:53.289Z,17.67
2022-11-03T20:24:59.294Z,14.60
2022-11-03T20:30:02.066Z,15.52
2022-11-03T20:35:03.856Z,13.80
2022-11-03T20:40:10.786Z,15.13
2022-11-03T20:45:14.343Z,12.30
2022-11-03T20:50:19.580Z,16.45
2022-11-03T20:55:24.650Z,15.18
2022-11-03T21:00:28.232Z,18.00
2022-11-03T21:05:29.939Z,13.95
2022-11-03T21:10:31.761Z,16.02
2022-11-03T21:16:18.286Z,14.35
2022-11-03T21:21:19.615Z,13.77
2022-11-03T21:26:22.602Z,15.25
2022-11-03T21:31:24.284Z,15.13
2022-11-03T21:36:26.126Z,14.75
2022-11-03T21:41:46.484Z,19.23
2022-11-03T21:46:49.199Z,16.08
2022-11-03T21:51:51.162Z,15.95
2022-11-03T21:56:53.002Z,16.02
2022-11-03T22:01:55.248Z,15.45
2022-11-03T22:06:58.442Z,16.58
2022-11-03T22:12:00.942Z,19.05
2022-11-03T22:17:02.685Z,17.25
2022-11-03T22:22:31.701Z,17.17
2022-11-03T22:27:34.501Z,18.17
2022-11-03T22:32:36.855Z,20.77
2022-11-03T22:42:58.069Z,18.75
2022-11-03T22:48:02.372Z,20.55
2022-11-03T22:53:24.106Z,22.88
2022-11-03T22:58:30.288Z,17.08
2022-11-03T23:03:37.542Z,17.70
2022-11-03T23:08:41.287Z,19.80
2022-11-03T23:13:43.820Z,15.00
2022-11-03T23:19:04.739Z,15.95
2022-11-03T23:24:25.168Z,16.95
2022-11-03T23:29:26.935Z,20.10
2022-11-03T23:34:28.959Z,16.52
2022-11-03T23:39:30.673Z,17.10
2022-11-03T23:44:52.262Z,16.60
2022-11-03T23:49:53.890Z,17.40
2022-11-03T23:54:55.542Z,17.90
2022-11-03T23:59:57.161Z,19.08
